Disclaimer

Please do not use the information listed here in-flight or in-navigation, as they are not provided to us by the airports but are provided by volunteers, so they might be outdated.

Search


Regions


Airport information page

Radio informations:
Tower (TWR) - 118.2 MHz
Ground (GND) - 121.9 MHz
Approach (APP) - 119.1 MHz

Airport informations:
Latitude: 17° 08' 12.30" N
Longitude: 061° 47' 33.60" W
Elevation: 62 feet - 19 meters
Operating hours: Remarks
Operating agency: Civil government, landing fees and diplomatic clearance may be required
Timezone: UTC-4
Fuel: Jet A1, without icing nhibitor.

100/130 MIL Spec, low lead, aviation gasoline (BLUE)

Runway information:
07/25 - 9003 x 148 feet< - >2744 x 45 meters

Recent METARs:
TAPA 191600Z 10013KT 9999 FEW018 29/23 Q1016 NOSIG
TAPA 191700Z 10014KT 9999 SCT018 SCT036 29/22 Q1015 NOSIG
TAPA 191700Z 10014KT 9999 SCT018 SCT036 29/22 Q1015 NOSIG

Airport on the map: